createdAt,value
2023-03-04T00:00:48.195Z,33.40
2023-03-04T00:03:16.729Z,28.90
2023-03-04T00:05:45.535Z,31.00
2023-03-04T00:08:13.826Z,30.30
2023-03-04T00:10:42.308Z,32.20
2023-03-04T00:13:28.397Z,29.40
2023-03-04T00:15:56.878Z,28.30
2023-03-04T00:18:26.492Z,32.20
2023-03-04T00:20:55.708Z,27.80
2023-03-04T00:23:24.265Z,30.40
2023-03-04T00:25:53.155Z,30.20
2023-03-04T00:28:21.738Z,27.60
2023-03-04T00:30:50.236Z,31.00
2023-03-04T00:33:18.908Z,31.50
2023-03-04T00:35:47.297Z,30.30
2023-03-04T00:38:16.888Z,30.20
2023-03-04T00:40:45.367Z,27.30
2023-03-04T00:43:14.438Z,27.90
2023-03-04T00:45:43.002Z,24.60
2023-03-04T00:48:12.980Z,25.20
2023-03-04T00:50:42.668Z,27.40
2023-03-04T00:53:11.046Z,24.10
2023-03-04T00:55:42.086Z,25.20
2023-03-04T00:58:10.874Z,25.90
2023-03-04T01:00:41.300Z,26.50
2023-03-04T01:03:09.786Z,25.20
2023-03-04T01:05:39.081Z,29.60
2023-03-04T01:08:07.700Z,26.90
2023-03-04T01:10:39.522Z,24.40
2023-03-04T01:13:07.902Z,25.70
2023-03-04T01:15:36.695Z,21.70
2023-03-04T01:18:09.509Z,23.30
2023-03-04T01:20:38.372Z,23.90
2023-03-04T01:23:06.766Z,25.10
2023-03-04T01:25:35.433Z,22.30
2023-03-04T01:28:04.317Z,22.20
2023-03-04T01:30:36.501Z,20.50
2023-03-04T01:33:06.799Z,18.90
2023-03-04T01:35:36.630Z,17.90
2023-03-04T01:38:05.397Z,22.10
2023-03-04T01:40:33.791Z,21.80
2023-03-04T01:43:02.979Z,21.40
2023-03-04T01:45:31.869Z,21.50
2023-03-04T01:48:01.997Z,21.40
2023-03-04T01:50:33.029Z,19.80
2023-03-04T01:53:02.328Z,21.30
2023-03-04T01:55:31.012Z,23.70
2023-03-04T01:57:59.489Z,20.90
2023-03-04T02:00:32.689Z,23.90
2023-03-04T02:03:09.202Z,22.40
2023-03-04T02:05:41.420Z,21.20
2023-03-04T02:08:09.800Z,20.70
2023-03-04T02:10:38.698Z,19.90
2023-03-04T02:13:07.283Z,22.20
2023-03-04T02:15:35.791Z,22.90
2023-03-04T02:18:21.247Z,20.70
2023-03-04T02:20:53.091Z,23.10
2023-03-04T02:23:57.838Z,21.20
2023-03-04T02:26:30.629Z,21.30
2023-03-04T02:29:01.142Z,22.40
2023-03-04T02:31:36.247Z,22.30
2023-03-04T02:34:12.633Z,23.40
2023-03-04T02:36:41.216Z,22.00
2023-03-04T02:39:12.566Z,21.90
2023-03-04T02:41:41.401Z,21.50
2023-03-04T02:44:19.124Z,25.20
2023-03-04T02:46:48.009Z,27.10
2023-03-04T02:49:17.352Z,24.70
2023-03-04T02:51:45.924Z,22.40
2023-03-04T02:54:16.360Z,22.60
2023-03-04T02:56:49.244Z,22.80
2023-03-04T02:59:18.025Z,26.30
2023-03-04T03:01:47.883Z,23.80
2023-03-04T03:04:16.522Z,24.20
2023-03-04T03:06:45.933Z,23.50
2023-03-04T03:09:17.578Z,20.40
2023-03-04T03:11:46.365Z,23.00
2023-03-04T03:14:14.996Z,24.60
2023-03-04T03:16:43.738Z,22.40
2023-03-04T03:19:12.727Z,24.10
2023-03-04T03:21:41.617Z,21.60
2023-03-04T03:24:10.209Z,21.80
2023-03-04T03:26:40.215Z,22.40
2023-03-04T03:29:09.415Z,20.10
2023-03-04T03:31:40.037Z,23.60
2023-03-04T03:34:09.273Z,21.70
2023-03-04T03:36:39.048Z,24.40
2023-03-04T03:39:12.516Z,22.30
2023-03-04T03:41:42.258Z,24.10
2023-03-04T03:44:10.434Z,23.30
2023-03-04T03:46:40.554Z,24.20
2023-03-04T03:49:09.029Z,25.50
2023-03-04T03:51:38.329Z,23.30
2023-03-04T03:54:06.812Z,21.90
2023-03-04T03:56:40.411Z,27.60
2023-03-04T03:59:09.096Z,25.20
2023-03-04T04:01:38.015Z,27.20
2023-03-04T04:04:06.569Z,25.40
2023-03-04T04:06:34.948Z,24.40
2023-03-04T04:09:03.327Z,25.90
2023-03-04T04:11:32.113Z,24.50
2023-03-04T04:14:00.401Z,25.60
2023-03-04T04:16:28.917Z,26.90
2023-03-04T04:18:57.659Z,26.30
2023-03-04T04:21:26.766Z,26.40
2023-03-04T04:23:55.658Z,26.50
2023-03-04T04:26:24.039Z,28.60
2023-03-04T04:28:52.401Z,24.30
2023-03-04T04:31:21.009Z,25.20
2023-03-04T04:33:49.386Z,29.50
2023-03-04T04:36:17.943Z,23.80
2023-03-04T04:38:51.139Z,28.50
2023-03-04T04:41:25.770Z,25.90
2023-03-04T04:43:54.037Z,23.60
2023-03-04T04:46:22.665Z,27.70
2023-03-04T04:48:51.304Z,26.80
2023-03-04T04:51:19.698Z,26.90
2023-03-04T04:53:49.305Z,27.80
2023-03-04T04:56:21.370Z,26.20
2023-03-04T04:58:49.896Z,28.20
2023-03-04T05:01:18.359Z,26.70
2023-03-04T05:03:58.683Z,25.90
2023-03-04T05:06:27.457Z,29.90
2023-03-04T05:08:55.935Z,27.00
2023-03-04T05:11:24.622Z,25.40
2023-03-04T05:13:53.103Z,24.30
2023-03-04T05:16:21.713Z,27.20
2023-03-04T05:18:50.270Z,27.20
2023-03-04T05:21:18.760Z,26.60
2023-03-04T05:23:47.337Z,24.90
2023-03-04T05:26:17.093Z,24.10
2023-03-04T05:28:45.743Z,24.90
2023-03-04T05:31:14.189Z,23.90
2023-03-04T05:33:43.001Z,22.90
2023-03-04T05:36:11.587Z,23.50
2023-03-04T05:38:40.060Z,22.70
2023-03-04T05:41:08.953Z,23.50
2023-03-04T05:43:38.660Z,23.30
2023-03-04T05:46:07.692Z,23.10
2023-03-04T05:48:36.245Z,21.80
2023-03-04T05:51:05.340Z,23.70
2023-03-04T05:53:37.192Z,20.60
2023-03-04T05:56:08.747Z,22.90
2023-03-04T05:58:37.534Z,21.70
2023-03-04T06:01:11.232Z,23.60
2023-03-04T06:03:39.857Z,21.20
2023-03-04T06:06:08.407Z,21.80
2023-03-04T06:08:37.703Z,24.00
2023-03-04T06:11:06.402Z,22.30
2023-03-04T06:13:36.418Z,23.20
2023-03-04T06:16:05.622Z,24.90
2023-03-04T06:18:33.976Z,23.40
2023-03-04T06:21:07.174Z,21.90
2023-03-04T06:23:35.752Z,20.90
2023-03-04T06:26:04.251Z,20.70
2023-03-04T06:28:34.964Z,20.60
2023-03-04T06:31:03.514Z,19.90
2023-03-04T06:33:32.849Z,21.50
2023-03-04T06:36:01.639Z,19.40
2023-03-04T06:38:30.777Z,19.50
2023-03-04T06:41:06.717Z,20.20
2023-03-04T06:43:35.368Z,18.90
2023-03-04T06:46:07.535Z,17.70
2023-03-04T06:48:36.840Z,21.70
2023-03-04T06:54:24.594Z,20.30
2023-03-04T06:56:53.484Z,17.70
2023-03-04T06:59:22.373Z,17.90
2023-03-04T07:01:50.946Z,18.50
2023-03-04T07:04:19.392Z,16.90
2023-03-04T07:06:48.646Z,20.40
2023-03-04T07:09:19.059Z,19.20
2023-03-04T07:11:48.455Z,17.40
2023-03-04T07:14:18.572Z,16.30
2023-03-04T07:16:47.404Z,18.90
2023-03-04T07:19:16.044Z,19.20
2023-03-04T07:21:44.524Z,19.30
2023-03-04T07:24:14.040Z,17.20
2023-03-04T07:26:42.614Z,23.90
2023-03-04T07:29:13.764Z,22.30
2023-03-04T07:31:42.231Z,19.00
2023-03-04T07:34:13.380Z,16.30
2023-03-04T07:36:42.588Z,18.20
2023-03-04T07:39:13.435Z,19.40
2023-03-04T07:41:42.609Z,18.30
2023-03-04T07:44:13.296Z,18.40
2023-03-04T07:46:43.870Z,16.20
2023-03-04T07:49:13.922Z,20.70
2023-03-04T07:51:42.168Z,21.00
2023-03-04T07:54:10.754Z,17.60
2023-03-04T07:56:38.990Z,17.70
2023-03-04T07:59:08.074Z,18.50
2023-03-04T08:01:37.314Z,16.40
2023-03-04T08:04:06.555Z,19.90
2023-03-04T08:06:36.466Z,20.50
2023-03-04T08:09:09.248Z,17.10
2023-03-04T08:11:38.209Z,17.60
2023-03-04T08:14:07.910Z,20.40
2023-03-04T08:16:36.211Z,17.40
2023-03-04T08:19:05.846Z,20.10
2023-03-04T08:21:34.380Z,16.90
2023-03-04T08:24:08.788Z,16.60
2023-03-04T08:26:42.213Z,17.20
2023-03-04T08:29:16.517Z,19.30
2023-03-04T08:31:48.730Z,17.00
2023-03-04T08:34:19.001Z,17.60
2023-03-04T08:36:52.294Z,16.60
2023-03-04T08:39:21.183Z,16.90
2023-03-04T08:41:49.975Z,15.50
2023-03-04T08:44:18.552Z,15.20
2023-03-04T08:46:47.033Z,16.00
2023-03-04T08:49:18.586Z,14.00
2023-03-04T08:51:47.170Z,15.30
2023-03-04T08:54:15.958Z,14.20
2023-03-04T08:56:44.741Z,14.70
2023-03-04T08:59:13.948Z,15.80
2023-03-04T09:01:42.208Z,16.70
2023-03-04T09:04:11.422Z,15.90
2023-03-04T09:06:41.199Z,16.30
2023-03-04T09:09:09.911Z,17.10
2023-03-04T09:11:41.469Z,17.70
2023-03-04T09:14:10.249Z,17.10
2023-03-04T09:16:38.937Z,19.80
2023-03-04T09:19:07.549Z,18.40
2023-03-04T09:21:40.916Z,17.00
2023-03-04T09:24:09.395Z,17.30
2023-03-04T09:26:38.006Z,16.60
2023-03-04T09:29:07.627Z,15.60
2023-03-04T09:31:36.438Z,16.60
2023-03-04T09:34:06.738Z,16.20
2023-03-04T09:36:35.187Z,17.10
2023-03-04T09:39:07.756Z,13.50
2023-03-04T09:41:42.796Z,13.90
2023-03-04T09:44:15.878Z,13.10
2023-03-04T09:46:46.031Z,13.40
2023-03-04T09:49:14.685Z,12.90
2023-03-04T09:51:49.113Z,13.20
2023-03-04T09:54:26.798Z,12.20
2023-03-04T09:57:06.445Z,13.20
2023-03-04T09:59:43.730Z,11.30
2023-03-04T10:02:23.982Z,14.10
2023-03-04T10:04:53.635Z,11.60
2023-03-04T10:10:48.948Z,12.70
2023-03-04T10:13:22.517Z,11.60
2023-03-04T10:15:54.131Z,15.00
2023-03-04T10:21:23.437Z,12.90
2023-03-04T10:23:53.816Z,12.50
2023-03-04T10:26:29.976Z,13.80
2023-03-04T10:28:58.349Z,12.50
2023-03-04T10:31:37.296Z,14.30
2023-03-04T10:34:07.260Z,15.10
2023-03-04T10:36:55.547Z,11.80
2023-03-04T10:39:42.543Z,13.10
2023-03-04T10:42:15.547Z,12.40
2023-03-04T10:44:52.789Z,14.40
2023-03-04T10:47:26.520Z,16.40
2023-03-04T10:50:01.069Z,15.60
2023-03-04T10:52:31.503Z,13.80
2023-03-04T10:55:01.389Z,15.20
2023-03-04T10:57:32.653Z,13.80
2023-03-04T11:00:01.107Z,16.20
2023-03-04T11:02:35.623Z,16.40
2023-03-04T11:05:17.922Z,17.70
2023-03-04T11:07:56.666Z,16.90
2023-03-04T11:10:27.395Z,15.80
2023-03-04T11:13:02.763Z,16.20
2023-03-04T11:15:31.821Z,16.40
2023-03-04T11:18:05.113Z,16.00
2023-03-04T11:20:36.660Z,17.40
2023-03-04T11:23:07.197Z,16.90
2023-03-04T11:25:49.390Z,15.20
2023-03-04T11:28:49.823Z,18.30
2023-03-04T11:31:26.014Z,16.70
2023-03-04T11:34:02.365Z,17.10
2023-03-04T11:36:37.287Z,18.00
2023-03-04T11:39:08.746Z,17.90
2023-03-04T11:41:39.378Z,16.10
2023-03-04T11:44:09.118Z,16.10
2023-03-04T11:46:55.601Z,16.20
2023-03-04T11:49:46.100Z,16.50
2023-03-04T11:52:17.451Z,16.50
2023-03-04T11:54:57.702Z,17.50
2023-03-04T11:57:42.563Z,14.80
2023-03-04T12:00:16.687Z,13.80
2023-03-04T12:02:50.786Z,15.10
2023-03-04T12:05:36.791Z,16.30
2023-03-04T12:08:22.520Z,18.40
2023-03-04T12:11:08.659Z,17.10
2023-03-04T12:14:02.431Z,18.30
2023-03-04T12:16:31.056Z,14.80
2023-03-04T12:19:17.318Z,16.00
2023-03-04T12:22:23.380Z,17.60
2023-03-04T12:25:10.834Z,19.10
2023-03-04T12:27:48.600Z,17.50
2023-03-04T12:30:47.815Z,16.70
2023-03-04T12:33:35.856Z,14.50
2023-03-04T12:36:07.492Z,15.00
2023-03-04T12:39:18.241Z,17.30
2023-03-04T12:41:50.634Z,16.20
2023-03-04T12:44:20.317Z,18.40
2023-03-04T12:47:11.804Z,20.00
2023-03-04T12:50:20.236Z,19.20
2023-03-04T12:53:30.577Z,21.00
2023-03-04T12:55:59.034Z,17.40
2023-03-04T12:58:30.003Z,19.40
2023-03-04T13:01:23.932Z,17.50
2023-03-04T13:04:11.410Z,16.70
2023-03-04T13:07:01.156Z,20.30
2023-03-04T13:09:42.422Z,21.20
2023-03-04T13:12:25.654Z,17.20
2023-03-04T13:15:10.135Z,19.20
2023-03-04T13:18:00.432Z,20.10
2023-03-04T13:20:31.541Z,22.30
2023-03-04T13:23:14.985Z,21.20
2023-03-04T13:25:50.808Z,24.50
2023-03-04T13:28:32.316Z,22.50
2023-03-04T13:31:09.960Z,21.50
2023-03-04T13:33:39.438Z,22.80
2023-03-04T13:36:26.629Z,26.00
2023-03-04T13:39:03.651Z,23.10
2023-03-04T13:41:51.792Z,23.30
2023-03-04T13:44:36.620Z,26.50
2023-03-04T13:47:27.887Z,24.00
2023-03-04T13:50:30.126Z,24.50
2023-03-04T13:53:01.354Z,24.10
2023-03-04T13:55:41.319Z,24.60
2023-03-04T13:58:18.253Z,25.80
2023-03-04T14:00:52.645Z,24.70
2023-03-04T14:03:26.214Z,27.80
2023-03-04T14:06:10.854Z,30.30
2023-03-04T14:08:39.433Z,26.00
2023-03-04T14:11:39.787Z,28.60
2023-03-04T14:14:12.341Z,25.00
2023-03-04T14:16:50.477Z,30.80
2023-03-04T14:19:36.247Z,29.40
2023-03-04T14:22:19.559Z,32.10
2023-03-04T14:25:04.272Z,28.40
2023-03-04T14:27:36.251Z,29.40
2023-03-04T14:32:34.182Z,30.20
2023-03-04T14:35:07.347Z,31.50
2023-03-04T14:37:49.880Z,31.40
2023-03-04T14:40:29.616Z,33.40
2023-03-04T14:43:01.815Z,31.20
2023-03-04T14:45:30.329Z,31.50
2023-03-04T14:48:01.907Z,33.60
2023-03-04T14:53:11.183Z,38.10
2023-03-04T14:56:04.739Z,35.40
2023-03-04T14:58:38.060Z,34.90
2023-03-04T15:01:17.732Z,36.00
2023-03-04T15:04:08.307Z,34.60
2023-03-04T15:07:01.744Z,33.30
2023-03-04T15:09:30.730Z,34.20
2023-03-04T15:12:04.507Z,36.70
2023-03-04T15:14:46.338Z,36.60
2023-03-04T15:20:11.344Z,39.30
2023-03-04T15:22:47.405Z,36.50
2023-03-04T15:25:16.315Z,44.50
2023-03-04T15:27:45.947Z,41.30
2023-03-04T15:30:19.597Z,43.90
2023-03-04T15:32:51.058Z,44.90
2023-03-04T15:35:19.806Z,48.10
2023-03-04T15:37:52.522Z,44.10
2023-03-04T15:40:24.074Z,43.40
2023-03-04T15:42:53.880Z,48.80
2023-03-04T15:45:24.621Z,46.00
2023-03-04T15:47:53.006Z,54.20
2023-03-04T15:50:21.902Z,52.20
2023-03-04T15:52:51.244Z,48.80
2023-03-04T15:55:21.512Z,50.60
2023-03-04T15:57:52.771Z,52.80
2023-03-04T16:00:21.841Z,53.50
2023-03-04T16:02:50.564Z,52.60
2023-03-04T16:05:19.014Z,52.20
2023-03-04T16:07:49.765Z,50.50
2023-03-04T16:10:20.964Z,50.70
2023-03-04T16:12:49.373Z,52.40
2023-03-04T16:15:28.392Z,59.30
2023-03-04T16:17:57.212Z,57.80
2023-03-04T16:20:29.055Z,56.80
2023-03-04T16:23:01.233Z,52.30
2023-03-04T16:25:31.209Z,58.30
2023-03-04T16:28:02.915Z,57.80
2023-03-04T16:30:31.888Z,57.80
2023-03-04T16:33:01.084Z,65.00
2023-03-04T16:35:30.787Z,62.30
2023-03-04T16:37:59.471Z,65.20
2023-03-04T16:40:29.814Z,64.90
2023-03-04T16:42:59.092Z,70.20
2023-03-04T16:45:30.460Z,69.20
2023-03-04T16:47:58.822Z,74.60
2023-03-04T16:50:28.445Z,70.00
2023-03-04T16:52:57.221Z,74.70
2023-03-04T16:55:27.867Z,76.10
2023-03-04T16:57:56.212Z,76.20
2023-03-04T17:00:25.730Z,76.50
2023-03-04T17:02:58.777Z,73.80
2023-03-04T17:05:29.721Z,81.20
2023-03-04T17:07:59.820Z,92.50
2023-03-04T17:10:28.556Z,96.00
2023-03-04T17:12:57.863Z,89.30
2023-03-04T17:15:27.468Z,80.00
2023-03-04T17:17:55.903Z,79.00
2023-03-04T17:20:28.842Z,85.40
2023-03-04T17:22:57.522Z,79.80
2023-03-04T17:25:25.894Z,80.60
2023-03-04T17:27:54.371Z,77.90
2023-03-04T17:30:23.881Z,77.90
2023-03-04T17:32:54.622Z,79.50
2023-03-04T17:35:25.906Z,75.20
2023-03-04T17:37:54.233Z,82.00
2023-03-04T17:40:24.356Z,79.90
2023-03-04T17:42:52.730Z,86.00
2023-03-04T17:45:21.199Z,80.30
2023-03-04T17:47:50.005Z,75.00
2023-03-04T17:50:22.782Z,77.50
2023-03-04T17:52:51.779Z,72.50
2023-03-04T17:55:20.261Z,74.60
2023-03-04T17:57:53.144Z,84.10
2023-03-04T18:00:22.043Z,82.60
2023-03-04T18:02:50.300Z,76.70
2023-03-04T18:05:18.694Z,79.50
2023-03-04T18:07:47.062Z,76.60
2023-03-04T18:10:17.915Z,87.10
2023-03-04T18:12:47.711Z,76.60
2023-03-04T18:15:17.407Z,80.00
2023-03-04T18:17:46.414Z,84.50
2023-03-04T18:20:15.213Z,83.00
2023-03-04T18:22:44.907Z,85.80
2023-03-04T18:25:13.797Z,74.60
2023-03-04T18:27:42.495Z,80.10
2023-03-04T18:30:13.649Z,84.40
2023-03-04T18:32:51.963Z,74.20
2023-03-04T18:35:22.710Z,85.10
2023-03-04T18:37:51.767Z,86.60
2023-03-04T18:40:20.340Z,81.50
2023-03-04T18:42:48.934Z,79.40
2023-03-04T18:45:21.723Z,80.50
2023-03-04T18:47:51.543Z,81.80
2023-03-04T18:50:22.259Z,81.10
2023-03-04T18:52:55.042Z,81.30
2023-03-04T18:55:23.627Z,80.70
2023-03-04T18:57:53.230Z,87.90
2023-03-04T19:00:22.549Z,83.80
2023-03-04T19:02:57.365Z,78.20
2023-03-04T19:05:27.778Z,75.60
2023-03-04T19:07:56.476Z,79.70
2023-03-04T19:10:26.192Z,73.30
2023-03-04T19:12:57.632Z,67.50
2023-03-04T19:15:26.321Z,69.10
2023-03-04T19:17:55.209Z,73.60
2023-03-04T19:20:23.798Z,69.20
2023-03-04T19:22:52.478Z,68.20
2023-03-04T19:25:21.168Z,66.40
2023-03-04T19:27:51.691Z,65.90
2023-03-04T19:30:20.279Z,60.60
2023-03-04T19:32:49.372Z,69.60
2023-03-04T19:35:18.428Z,64.40
2023-03-04T19:37:46.742Z,64.00
2023-03-04T19:40:15.445Z,59.80
2023-03-04T19:42:43.808Z,59.60
2023-03-04T19:45:12.180Z,67.60
2023-03-04T19:47:41.592Z,58.10
2023-03-04T19:50:16.522Z,59.40
2023-03-04T19:52:45.000Z,60.10
2023-03-04T19:55:20.747Z,58.30
2023-03-04T19:57:49.430Z,56.70
2023-03-04T20:00:18.687Z,62.10
2023-03-04T20:05:18.273Z,59.00
2023-03-04T20:07:50.315Z,61.30
2023-03-04T20:10:19.827Z,55.00
2023-03-04T20:12:48.196Z,55.60
2023-03-04T20:15:16.780Z,56.30
2023-03-04T20:17:45.464Z,55.40
2023-03-04T20:20:14.658Z,57.20
2023-03-04T20:22:44.688Z,57.60
2023-03-04T20:25:13.770Z,46.40
2023-03-04T20:27:43.376Z,50.80
2023-03-04T20:30:12.474Z,50.70
2023-03-04T20:32:41.168Z,51.30
2023-03-04T20:35:14.251Z,48.70
2023-03-04T20:37:42.628Z,47.00
2023-03-04T20:40:12.644Z,41.40
2023-03-04T20:42:40.914Z,45.90
2023-03-04T20:45:12.273Z,43.00
2023-03-04T20:47:41.055Z,40.60
2023-03-04T20:50:11.267Z,42.60
2023-03-04T20:52:42.107Z,42.50
2023-03-04T20:55:11.002Z,39.10
2023-03-04T20:57:40.315Z,43.90
2023-03-04T21:00:10.006Z,44.80
2023-03-04T21:02:40.226Z,52.10
2023-03-04T21:05:09.327Z,43.60
2023-03-04T21:07:37.658Z,41.70
2023-03-04T21:10:08.803Z,49.90
2023-03-04T21:12:37.324Z,43.80
2023-03-04T21:15:08.936Z,43.60
2023-03-04T21:17:40.123Z,44.60
2023-03-04T21:20:09.369Z,47.40
2023-03-04T21:22:37.907Z,46.60
2023-03-04T21:25:07.411Z,47.70
2023-03-04T21:27:42.762Z,48.10
2023-03-04T21:30:12.361Z,48.10
2023-03-04T21:32:40.748Z,44.80
2023-03-04T21:35:11.472Z,45.40
2023-03-04T21:37:42.009Z,47.50
2023-03-04T21:40:11.731Z,42.60
2023-03-04T21:42:40.179Z,41.20
2023-03-04T21:45:09.946Z,44.90
2023-03-04T21:47:38.922Z,42.90
2023-03-04T21:50:07.914Z,41.50
2023-03-04T21:52:37.724Z,44.50
2023-03-04T21:55:06.668Z,39.00
2023-03-04T21:57:36.426Z,36.50
2023-03-04T22:00:06.598Z,35.80
2023-03-04T22:02:40.452Z,31.70
2023-03-04T22:05:09.860Z,31.90
2023-03-04T22:07:38.131Z,32.20
2023-03-04T22:10:07.645Z,34.70
2023-03-04T22:12:36.630Z,35.30
2023-03-04T22:15:05.933Z,37.20
2023-03-04T22:17:35.411Z,33.00
2023-03-04T22:20:04.840Z,34.00
2023-03-04T22:22:36.392Z,32.80
2023-03-04T22:25:07.004Z,31.50
2023-03-04T22:27:35.406Z,32.20
2023-03-04T22:30:04.729Z,38.00
2023-03-04T22:32:33.362Z,33.00
2023-03-04T22:35:02.283Z,35.70
2023-03-04T22:37:30.874Z,33.70
2023-03-04T22:40:00.289Z,34.90
2023-03-04T22:42:28.854Z,30.40
2023-03-04T22:44:57.557Z,35.00
2023-03-04T22:47:25.816Z,33.50
2023-03-04T22:49:54.294Z,32.60
2023-03-04T22:52:28.837Z,35.70
2023-03-04T22:54:57.500Z,34.70
2023-03-04T22:57:26.078Z,33.60
2023-03-04T22:59:55.079Z,36.90
2023-03-04T23:02:24.561Z,36.40
2023-03-04T23:04:53.256Z,35.00
2023-03-04T23:07:22.047Z,38.60
2023-03-04T23:09:50.422Z,33.90
2023-03-04T23:12:18.905Z,34.80
2023-03-04T23:14:47.315Z,36.40
2023-03-04T23:17:15.966Z,35.20
2023-03-04T23:19:44.448Z,32.60
2023-03-04T23:22:17.737Z,36.10
2023-03-04T23:24:46.120Z,34.20
2023-03-04T23:27:14.701Z,34.50
2023-03-04T23:29:43.997Z,35.60
2023-03-04T23:32:12.505Z,34.70
2023-03-04T23:34:44.379Z,37.80
2023-03-04T23:37:12.733Z,33.60
2023-03-04T23:39:41.002Z,35.20
2023-03-04T23:42:09.478Z,35.40
2023-03-04T23:44:38.063Z,33.80
2023-03-04T23:47:08.280Z,35.20
2023-03-04T23:49:37.071Z,36.70
2023-03-04T23:52:06.721Z,37.20
2023-03-04T23:54:35.257Z,32.40
2023-03-04T23:57:03.745Z,38.50
2023-03-04T23:59:33.133Z,43.00
